Time;durP1;ratioP1;P1;durP2;ratioP2;P2;SDS_P1;SDS_P2;PMS_P1;PMS_P2;Temp;Humidity;BMP_temperature;BMP_pressure;BME280_temperature;BME280_humidity;BME280_pressure;Samples;Min_cycle;Max_cycle;Signal;HPM_P1;HPM_P2
2023/09/08 00:09:25;;;;;;;10.73;9.50;;;;;;;29.71;42.03;100776.47;21065259;28;20097;-60
2023/09/08 00:19:26;;;;;;;13.95;9.80;;;;;;;29.79;41.38;100800.97;21066339;28;20499;-59
2023/09/08 00:29:27;;;;;;;10.15;9.15;;;;;;;29.74;41.62;100823.75;21049001;28;20486;-60
2023/09/08 00:39:29;;;;;;;11.02;8.85;;;;;;;29.72;41.34;100862.72;21089113;28;20113;-58
2023/09/08 00:49:42;;;;;;;11.93;8.45;;;;;;;29.74;41.23;100894.25;21035683;28;20035;-61
2023/09/08 00:59:44;;;;;;;9.20;8.23;;;;;;;29.66;41.75;100926.16;21088635;28;20044;-60
2023/09/08 01:09:47;;;;;;;12.95;7.20;;;;;;;29.66;41.73;100948.72;21088065;28;20044;-60
2023/09/08 01:19:52;;;;;;;8.10;6.97;;;;;;;29.59;42.13;100939.94;21088717;28;20437;-59
2023/09/08 01:29:54;;;;;;;8.27;7.05;;;;;;;29.59;41.98;100942.78;21084053;28;20540;-60
2023/09/08 01:39:55;;;;;;;7.88;6.43;;;;;;;29.54;41.58;100906.28;21076998;28;20052;-61
2023/09/08 01:49:57;;;;;;;9.77;7.90;;;;;;;29.51;42.13;100923.91;21083304;28;20032;-60
2023/09/08 01:59:58;;;;;;;8.70;7.32;;;;;;;29.48;41.69;100958.41;21082279;28;20047;-61
2023/09/08 02:10:02;;;;;;;8.45;6.70;;;;;;;29.38;42.06;100982.97;21076070;28;20452;-62
2023/09/08 02:20:07;;;;;;;9.00;7.07;;;;;;;29.38;41.92;100982.97;21080236;28;20036;-60
2023/09/08 02:30:09;;;;;;;10.00;7.15;;;;;;;29.36;42.02;100996.56;21078086;28;20037;-61
2023/09/08 02:40:10;;;;;;;9.50;7.07;;;;;;;29.28;42.22;100974.91;21079905;28;20093;-61
2023/09/08 02:50:12;;;;;;;7.40;6.70;;;;;;;29.30;42.25;100941.56;21084490;28;20040;-60
2023/09/08 03:00:14;;;;;;;7.35;6.63;;;;;;;29.25;41.92;100907.94;21064715;28;20051;-60
2023/09/08 03:10:15;;;;;;;6.60;5.93;;;;;;;29.15;42.01;100877.31;21073677;28;20044;-61
2023/09/08 03:20:20;;;;;;;7.90;6.00;;;;;;;29.19;41.84;100875.50;21063252;28;20040;-62
2023/09/08 03:30:21;;;;;;;8.75;6.57;;;;;;;29.18;41.93;100932.97;21072899;28;20044;-59
2023/09/08 03:40:22;;;;;;;10.88;6.25;;;;;;;29.11;42.04;100989.88;21069406;28;20582;-60
2023/09/08 03:50:24;;;;;;;7.97;5.78;;;;;;;29.14;42.03;100968.66;21077331;28;20544;-60
2023/09/08 04:00:25;;;;;;;6.60;5.90;;;;;;;29.08;42.12;100961.53;21071391;28;20077;-60
2023/09/08 04:10:27;;;;;;;8.70;6.28;;;;;;;29.08;42.10;100967.16;21070364;28;20055;-60
2023/09/08 04:20:28;;;;;;;9.20;5.82;;;;;;;29.03;41.86;100978.63;21073657;28;20036;-60
2023/09/08 04:30:29;;;;;;;7.30;5.90;;;;;;;28.90;42.23;100982.44;21075539;28;20090;-58
2023/09/08 04:40:31;;;;;;;8.20;5.93;;;;;;;28.93;42.36;100998.69;21075097;28;20040;-59
2023/09/08 04:50:32;;;;;;;6.63;5.93;;;;;;;28.98;42.15;100981.63;21074385;28;20040;-60
2023/09/08 05:00:34;;;;;;;6.50;5.80;;;;;;;28.84;42.11;100962.06;21074862;28;20077;-60
2023/09/08 05:10:35;;;;;;;6.57;5.53;;;;;;;28.85;42.18;100964.56;21079089;28;20040;-61
2023/09/08 05:20:36;;;;;;;5.75;5.25;;;;;;;28.92;42.48;100980.13;21063624;28;20059;-60
2023/09/08 05:30:41;;;;;;;7.35;5.18;;;;;;;28.92;42.61;100963.22;21082055;28;20102;-60
2023/09/08 05:40:43;;;;;;;6.78;4.78;;;;;;;28.83;42.75;100983.78;21084004;28;20506;-60
2023/09/08 05:50:44;;;;;;;5.30;4.80;;;;;;;28.80;42.55;100994.88;21077511;28;20045;-59
2023/09/08 06:00:45;;;;;;;4.80;4.40;;;;;;;28.77;42.51;100979.50;21073359;28;20040;-60
2023/09/08 06:10:47;;;;;;;5.07;4.65;;;;;;;28.74;42.58;100980.16;21079075;28;20086;-60
2023/09/08 06:20:52;;;;;;;5.45;4.95;;;;;;;28.72;42.28;100992.91;21076760;28;20040;-60
2023/09/08 06:30:54;;;;;;;6.47;4.60;;;;;;;28.70;42.26;101004.50;21076692;28;20078;-59
2023/09/08 06:40:55;;;;;;;5.93;4.32;;;;;;;28.69;42.73;101005.69;21074561;28;20048;-60
2023/09/08 06:50:59;;;;;;;4.72;4.30;;;;;;;28.65;42.86;100999.06;21053636;28;20040;-60
2023/09/08 07:01:01;;;;;;;5.30;4.03;;;;;;;28.64;42.90;101003.03;21075735;28;20043;-62
2023/09/08 07:11:02;;;;;;;5.30;4.78;;;;;;;28.62;42.94;101005.34;21069238;28;20047;-60
2023/09/08 07:21:04;;;;;;;5.65;4.93;;;;;;;28.61;42.83;101000.88;21066429;28;20077;-59
2023/09/08 07:31:06;;;;;;;4.95;4.22;;;;;;;28.56;42.89;100989.78;21073184;28;20044;-61
2023/09/08 07:41:07;;;;;;;4.15;3.75;;;;;;;28.45;43.21;100983.63;21074632;28;20078;-60
2023/09/08 07:51:09;;;;;;;4.63;4.22;;;;;;;28.56;42.87;100995.41;21068987;28;20093;-59
2023/09/08 08:01:12;;;;;;;4.80;3.97;;;;;;;28.52;42.75;100974.72;21067411;28;20047;-59
2023/09/08 08:11:15;;;;;;;4.43;4.03;;;;;;;28.49;43.14;100983.81;21043307;28;20105;-59
2023/09/08 08:21:16;;;;;;;5.20;4.60;;;;;;;28.39;43.00;100989.78;21071695;28;20048;-59
2023/09/08 08:31:20;;;;;;;6.57;4.30;;;;;;;28.45;43.13;101006.16;21067800;28;20048;-61
2023/09/08 08:41:23;;;;;;;5.32;4.10;;;;;;;28.37;42.96;101007.00;21068908;28;20548;-59
2023/09/08 08:51:24;;;;;;;5.70;4.70;;;;;;;28.26;43.14;101012.09;21086199;28;20093;-60
2023/09/08 09:01:26;;;;;;;6.05;4.82;;;;;;;28.38;43.12;101028.34;21086234;28;20044;-60
2023/09/08 09:11:27;;;;;;;5.25;4.75;;;;;;;28.29;43.27;101008.63;21081271;28;20101;-60
2023/09/08 09:21:43;;;;;;;5.75;5.07;;;;;;;28.31;43.25;101040.06;21074908;28;20032;-59
2023/09/08 09:31:55;;;;;;;7.03;5.30;;;;;;;28.27;43.74;101050.34;21075552;28;20036;-59
2023/09/08 09:41:57;;;;;;;8.23;5.15;;;;;;;28.26;43.79;101057.09;21078421;28;20048;-59
2023/09/08 09:51:59;;;;;;;7.50;5.90;;;;;;;28.25;43.71;101055.44;21077731;28;20093;-60
2023/09/08 10:02:00;;;;;;;5.85;5.10;;;;;;;28.26;43.90;101048.66;21080823;28;20124;-59
2023/09/08 10:12:06;;;;;;;5.97;5.40;;;;;;;28.17;43.82;101044.19;21076165;28;20052;-62
2023/09/08 10:22:13;;;;;;;7.00;5.32;;;;;;;28.17;43.69;101053.44;21061499;28;20561;-61
2023/09/08 10:32:16;;;;;;;6.05;5.45;;;;;;;28.17;43.87;101033.75;21066027;28;20048;-62
2023/09/08 10:42:17;;;;;;;5.97;5.32;;;;;;;28.14;44.09;101082.25;21073872;28;20044;-61
2023/09/08 10:52:21;;;;;;;8.52;6.18;;;;;;;28.15;44.17;101095.16;21064433;28;20051;-60
2023/09/08 11:02:31;;;;;;;15.82;6.93;;;;;;;28.13;45.46;101094.63;21075732;28;20188;-60
2023/09/08 11:12:34;;;;;;;12.13;7.20;;;;;;;28.23;48.19;101083.09;21072687;28;20044;-61
2023/09/08 11:22:40;;;;;;;11.50;6.43;;;;;;;28.34;49.65;101118.25;21044564;28;20105;-58
2023/09/08 11:32:42;;;;;;;13.02;7.00;;;;;;;28.35;49.46;101122.72;21054239;28;20066;-61
2023/09/08 11:42:45;;;;;;;10.07;6.90;;;;;;;28.56;49.26;101144.63;21076119;28;20040;-59
2023/09/08 11:52:48;;;;;;;9.60;6.65;;;;;;;28.68;49.09;101149.59;21077522;28;20482;-59
2023/09/08 12:02:53;;;;;;;10.85;6.35;;;;;;;28.73;48.71;101124.94;21075682;28;20062;-59
2023/09/08 12:12:58;;;;;;;6.90;5.82;;;;;;;28.85;48.53;101142.00;21074911;28;20048;-59
2023/09/08 12:23:14;;;;;;;9.65;6.13;;;;;;;28.93;48.53;101139.53;21091557;28;20372;-60
2023/09/08 12:33:17;;;;;;;9.10;6.55;;;;;;;28.94;48.77;101139.19;21093585;28;20047;-60
2023/09/08 12:43:19;;;;;;;7.72;6.40;;;;;;;28.96;48.55;101138.91;21091421;28;20032;-59
2023/09/08 12:53:22;;;;;;;7.97;7.00;;;;;;;29.09;48.31;101143.50;21091680;28;20032;-61
2023/09/08 13:03:23;;;;;;;7.50;6.28;;;;;;;29.20;48.29;101160.94;21090383;28;20052;-59
2023/09/08 13:13:25;;;;;;;9.55;7.25;;;;;;;29.18;48.15;101175.34;21089590;28;20036;-59
2023/09/08 13:23:26;;;;;;;7.43;6.68;;;;;;;29.23;47.98;101194.91;21088974;28;20040;-61
2023/09/08 13:33:28;;;;;;;7.97;6.65;;;;;;;29.34;47.84;101207.50;21087293;28;20070;-60
2023/09/08 13:43:32;;;;;;;9.65;7.28;;;;;;;29.25;47.86;101172.84;21087829;28;20094;-60
2023/09/08 13:53:34;;;;;;;11.98;6.47;;;;;;;29.43;47.28;101201.03;21086949;28;20028;-59
2023/09/08 14:03:39;;;;;;;6.90;6.30;;;;;;;29.47;47.52;101216.13;21085823;28;20504;-60
2023/09/08 14:13:40;;;;;;;7.68;6.60;;;;;;;29.55;47.31;101223.75;21085403;28;20032;-60
2023/09/08 14:23:41;;;;;;;7.32;6.63;;;;;;;29.58;47.28;101228.75;21084962;28;20044;-60
2023/09/08 14:33:43;;;;;;;7.63;6.68;;;;;;;29.53;47.39;101206.31;21084290;28;20044;-61
2023/09/08 14:43:44;;;;;;;7.45;6.75;;;;;;;29.69;47.52;101223.56;21081721;28;20040;-60
2023/09/08 14:53:45;;;;;;;8.50;7.60;;;;;;;29.73;47.40;101219.75;21081634;28;20483;-60
2023/09/08 15:03:47;;;;;;;8.82;7.78;;;;;;;29.66;47.54;101202.53;21081576;28;20458;-61
2023/09/08 15:13:48;;;;;;;8.65;7.75;;;;;;;29.83;47.72;101230.69;21081070;28;20479;-64
2023/09/08 15:23:49;;;;;;;9.43;8.52;;;;;;;29.89;48.01;101222.88;21080367;28;20399;-60
2023/09/08 15:33:51;;;;;;;10.05;9.05;;;;;;;29.92;48.07;101221.38;21079382;28;20424;-60
2023/09/08 15:43:53;;;;;;;9.73;8.73;;;;;;;29.95;47.66;101226.34;21031293;28;20405;-60
2023/09/08 15:53:54;;;;;;;10.45;9.45;;;;;;;29.76;47.02;101224.72;21077464;28;20040;-60
2023/09/08 16:03:58;;;;;;;10.32;9.20;;;;;;;29.62;46.69;101236.19;21077660;28;20051;-60
2023/09/08 16:14:01;;;;;;;;;;;;;;;29.57;47.17;101225.09;21077554;28;20052;-61
2023/09/08 16:24:03;;;;;;;11.85;10.68;;;;;;;29.51;46.59;101211.50;21076851;28;19912;-59
2023/09/08 16:34:04;;;;;;;11.70;10.50;;;;;;;29.48;46.35;101223.41;21076489;28;20040;-60
2023/09/08 16:44:06;;;;;;;11.55;10.02;;;;;;;29.38;46.23;101219.78;21071009;28;20105;-59
2023/09/08 16:54:10;;;;;;;10.80;9.70;;;;;;;29.35;46.52;101203.50;21074426;28;20102;-60
2023/09/08 17:04:11;;;;;;;12.32;11.13;;;;;;;29.16;46.75;101180.50;21079025;28;20073;-59
2023/09/08 17:14:15;;;;;;;11.85;10.63;;;;;;;29.23;46.67;101183.66;21088398;28;20036;-60
2023/09/08 17:24:17;;;;;;;12.05;10.90;;;;;;;29.26;46.95;101185.78;21085394;28;20040;-60
2023/09/08 17:34:21;;;;;;;12.60;11.35;;;;;;;29.14;46.92;101157.47;21088406;28;20036;-62
2023/09/08 17:44:23;;;;;;;12.77;11.57;;;;;;;29.19;46.92;101143.19;21084141;28;20101;-60
2023/09/08 17:54:24;;;;;;;12.27;11.05;;;;;;;29.20;46.67;101119.47;21085388;28;20035;-61
2023/09/08 18:04:25;;;;;;;12.05;10.88;;;;;;;29.18;46.61;101096.44;21085277;28;20044;-60
2023/09/08 18:14:27;;;;;;;12.48;11.27;;;;;;;29.18;47.02;101087.16;21080430;28;20036;-59
2023/09/08 18:24:29;;;;;;;11.43;10.23;;;;;;;29.11;46.97;101080.03;21082145;28;20395;-60
2023/09/08 18:34:30;;;;;;;11.80;10.65;;;;;;;29.17;46.96;101077.03;21083035;28;20032;-60
2023/09/08 18:44:39;;;;;;;11.90;10.70;;;;;;;29.16;46.84;101081.84;21082193;28;20441;-60
2023/09/08 18:54:40;;;;;;;11.10;10.10;;;;;;;29.13;46.97;101088.16;21081039;28;20113;-60
2023/09/08 19:04:42;;;;;;;11.43;10.32;;;;;;;29.02;46.71;101073.59;21081248;28;20044;-64
2023/09/08 19:14:43;;;;;;;11.02;10.02;;;;;;;28.95;46.66;101044.22;21074022;28;20098;-65
2023/09/08 19:24:45;;;;;;;11.15;10.15;;;;;;;29.03;46.77;101049.06;21064604;28;20036;-61
2023/09/08 19:34:46;;;;;;;10.88;9.32;;;;;;;28.44;46.62;100987.63;21047537;28;20033;-64
2023/09/08 19:44:48;;;;;;;9.57;8.57;;;;;;;29.09;46.46;101075.88;21056892;28;20470;-60
2023/09/08 19:54:49;;;;;;;10.35;9.35;;;;;;;29.10;46.71;101083.19;21046642;28;20094;-60
2023/09/08 20:04:50;;;;;;;10.05;9.05;;;;;;;29.05;46.83;101087.03;21048594;28;20101;-65
2023/09/08 20:14:52;;;;;;;9.85;8.90;;;;;;;28.93;46.62;101060.66;21071447;28;20032;-60
2023/09/08 20:24:53;;;;;;;10.43;9.43;;;;;;;28.99;46.78;101076.25;21068945;28;20109;-60
2023/09/08 20:34:57;;;;;;;11.00;9.25;;;;;;;29.00;47.15;101073.13;21071273;28;20391;-59
2023/09/08 20:44:59;;;;;;;10.35;9.00;;;;;;;28.82;47.54;101069.44;21084744;28;20380;-59
2023/09/08 20:55:03;;;;;;;10.95;8.93;;;;;;;28.88;47.74;101135.72;21084360;28;20040;-60
2023/09/08 21:05:05;;;;;;;10.95;9.75;;;;;;;28.95;48.15;101154.94;21090099;28;20408;-60
2023/09/08 21:15:07;;;;;;;14.35;10.63;;;;;;;28.93;48.21;101140.34;21082550;28;20531;-58
2023/09/08 21:25:08;;;;;;;11.63;10.35;;;;;;;28.88;48.56;101172.31;21066463;28;20093;-58
2023/09/08 21:35:09;;;;;;;14.18;11.15;;;;;;;28.85;48.82;101200.31;21076264;28;20536;-60
2023/09/08 21:45:11;;;;;;;14.43;11.82;;;;;;;28.84;49.03;101210.75;21078345;28;20070;-58
2023/09/08 21:55:16;;;;;;;13.57;11.85;;;;;;;28.88;49.59;101233.47;21056543;28;20036;-60
2023/09/08 22:05:17;;;;;;;13.77;12.35;;;;;;;28.90;48.70;101242.41;21078347;28;20044;-61
2023/09/08 22:15:19;;;;;;;13.35;11.02;;;;;;;28.88;48.79;101253.19;21077554;28;20468;-58
2023/09/08 22:25:21;;;;;;;16.58;12.18;;;;;;;28.84;48.60;101255.81;21080711;28;20048;-60
2023/09/08 22:35:22;;;;;;;12.88;10.80;;;;;;;28.83;47.89;101273.06;21080462;28;20055;-60
2023/09/08 22:45:24;;;;;;;11.98;10.52;;;;;;;28.78;47.34;101251.50;21025419;28;20041;-59
2023/09/08 22:55:28;;;;;;;12.00;10.80;;;;;;;28.67;47.40;101249.31;21077683;28;20048;-59
2023/09/08 23:05:29;;;;;;;12.13;10.02;;;;;;;28.64;47.12;101262.06;21074512;28;20105;-60
2023/09/08 23:15:31;;;;;;;12.13;10.82;;;;;;;28.70;47.04;101276.84;21077773;28;20036;-59
2023/09/08 23:25:33;;;;;;;12.52;11.23;;;;;;;28.71;49.48;101284.94;21073468;28;20387;-60
2023/09/08 23:35:35;;;;;;;13.50;12.10;;;;;;;28.67;51.42;101267.03;21079548;28;20540;-64
2023/09/08 23:45:36;;;;;;;13.07;11.20;;;;;;;28.93;51.75;101302.91;21072370;28;20108;-60
2023/09/08 23:55:38;;;;;;;12.30;10.85;;;;;;;29.01;51.48;101316.22;21034432;28;20035;-59
